sensor_id;sensor_type;location;lat;lon;timestamp;temperature;humidity
27409;DHT22;20413;50.782;7.152;2022-08-14T00:02:08;21.90;97.30
27409;DHT22;20413;50.782;7.152;2022-08-14T00:04:35;21.90;96.80
27409;DHT22;20413;50.782;7.152;2022-08-14T00:07:03;21.80;97.00
27409;DHT22;20413;50.782;7.152;2022-08-14T00:09:29;21.80;97.70
27409;DHT22;20413;50.782;7.152;2022-08-14T00:11:54;21.70;97.60
27409;DHT22;20413;50.782;7.152;2022-08-14T00:14:21;21.70;98.10
27409;DHT22;20413;50.782;7.152;2022-08-14T00:16:46;21.60;98.10
27409;DHT22;20413;50.782;7.152;2022-08-14T00:19:13;21.60;98.00
27409;DHT22;20413;50.782;7.152;2022-08-14T00:21:38;21.60;98.10
27409;DHT22;20413;50.782;7.152;2022-08-14T00:24:04;21.60;98.20
27409;DHT22;20413;50.782;7.152;2022-08-14T00:26:29;21.60;98.20
27409;DHT22;20413;50.782;7.152;2022-08-14T00:28:55;21.50;98.40
27409;DHT22;20413;50.782;7.152;2022-08-14T00:31:22;21.50;98.60
27409;DHT22;20413;50.782;7.152;2022-08-14T00:33:47;21.50;98.60
27409;DHT22;20413;50.782;7.152;2022-08-14T00:36:13;21.50;95.20
27409;DHT22;20413;50.782;7.152;2022-08-14T00:38:38;21.40;95.10
27409;DHT22;20413;50.782;7.152;2022-08-14T00:41:05;21.40;95.40
27409;DHT22;20413;50.782;7.152;2022-08-14T00:43:32;21.40;95.40
27409;DHT22;20413;50.782;7.152;2022-08-14T00:46:08;21.40;95.60
27409;DHT22;20413;50.782;7.152;2022-08-14T00:48:35;21.50;96.00
27409;DHT22;20413;50.782;7.152;2022-08-14T00:51:02;21.60;96.20
27409;DHT22;20413;50.782;7.152;2022-08-14T00:53:27;21.70;96.40
27409;DHT22;20413;50.782;7.152;2022-08-14T00:55:54;21.70;96.50
27409;DHT22;20413;50.782;7.152;2022-08-14T00:58:22;21.70;96.60
27409;DHT22;20413;50.782;7.152;2022-08-14T01:01:05;21.70;96.60
27409;DHT22;20413;50.782;7.152;2022-08-14T01:03:34;21.80;96.80
27409;DHT22;20413;50.782;7.152;2022-08-14T01:06:02;21.80;96.80
27409;DHT22;20413;50.782;7.152;2022-08-14T01:08:29;21.70;96.80
27409;DHT22;20413;50.782;7.152;2022-08-14T01:10:56;21.70;96.90
27409;DHT22;20413;50.782;7.152;2022-08-14T01:13:34;21.50;97.10
27409;DHT22;20413;50.782;7.152;2022-08-14T01:16:06;21.50;97.60
27409;DHT22;20413;50.782;7.152;2022-08-14T01:18:33;21.50;98.00
27409;DHT22;20413;50.782;7.152;2022-08-14T01:21:43;21.60;98.20
27409;DHT22;20413;50.782;7.152;2022-08-14T01:24:11;21.60;98.50
27409;DHT22;20413;50.782;7.152;2022-08-14T01:26:40;21.70;98.70
27409;DHT22;20413;50.782;7.152;2022-08-14T01:29:07;21.70;98.90
27409;DHT22;20413;50.782;7.152;2022-08-14T01:31:36;21.60;99.20
27409;DHT22;20413;50.782;7.152;2022-08-14T01:34:12;21.50;99.70
27409;DHT22;20413;50.782;7.152;2022-08-14T01:36:38;21.40;99.90
27409;DHT22;20413;50.782;7.152;2022-08-14T01:39:09;21.30;99.90
27409;DHT22;20413;50.782;7.152;2022-08-14T01:41:36;21.30;99.90
27409;DHT22;20413;50.782;7.152;2022-08-14T01:44:05;21.30;99.90
27409;DHT22;20413;50.782;7.152;2022-08-14T01:46:35;21.30;99.90
27409;DHT22;20413;50.782;7.152;2022-08-14T01:49:04;21.30;99.90
27409;DHT22;20413;50.782;7.152;2022-08-14T01:51:30;21.20;99.90
27409;DHT22;20413;50.782;7.152;2022-08-14T01:53:58;21.20;99.90
27409;DHT22;20413;50.782;7.152;2022-08-14T01:56:28;21.20;99.90
27409;DHT22;20413;50.782;7.152;2022-08-14T01:59:24;21.10;99.90
27409;DHT22;20413;50.782;7.152;2022-08-14T02:01:54;21.20;99.90
27409;DHT22;20413;50.782;7.152;2022-08-14T02:04:23;21.20;99.90
27409;DHT22;20413;50.782;7.152;2022-08-14T02:06:50;21.20;99.90
27409;DHT22;20413;50.782;7.152;2022-08-14T02:09:17;21.30;99.90
27409;DHT22;20413;50.782;7.152;2022-08-14T02:11:43;21.30;99.90
27409;DHT22;20413;50.782;7.152;2022-08-14T02:14:12;21.40;99.90
27409;DHT22;20413;50.782;7.152;2022-08-14T02:16:48;21.40;99.90
27409;DHT22;20413;50.782;7.152;2022-08-14T02:19:19;21.50;99.90
27409;DHT22;20413;50.782;7.152;2022-08-14T02:21:46;21.40;99.90
27409;DHT22;20413;50.782;7.152;2022-08-14T02:24:13;21.50;99.90
27409;DHT22;20413;50.782;7.152;2022-08-14T02:26:41;21.40;99.90
27409;DHT22;20413;50.782;7.152;2022-08-14T02:29:09;21.30;99.90
27409;DHT22;20413;50.782;7.152;2022-08-14T02:31:38;21.20;99.90
27409;DHT22;20413;50.782;7.152;2022-08-14T02:34:11;21.20;99.90
27409;DHT22;20413;50.782;7.152;2022-08-14T02:36:37;21.10;99.90
27409;DHT22;20413;50.782;7.152;2022-08-14T02:39:05;21.20;99.90
27409;DHT22;20413;50.782;7.152;2022-08-14T02:41:32;21.10;99.90
27409;DHT22;20413;50.782;7.152;2022-08-14T02:43:59;21.10;99.90
27409;DHT22;20413;50.782;7.152;2022-08-14T02:46:25;21.10;99.90
27409;DHT22;20413;50.782;7.152;2022-08-14T02:48:50;21.00;99.90
27409;DHT22;20413;50.782;7.152;2022-08-14T02:51:16;20.90;99.90
27409;DHT22;20413;50.782;7.152;2022-08-14T02:53:44;20.80;99.90
27409;DHT22;20413;50.782;7.152;2022-08-14T02:56:13;20.80;99.90
27409;DHT22;20413;50.782;7.152;2022-08-14T02:58:45;20.80;99.90
27409;DHT22;20413;50.782;7.152;2022-08-14T03:01:19;20.70;99.90
27409;DHT22;20413;50.782;7.152;2022-08-14T03:03:46;20.60;99.90
27409;DHT22;20413;50.782;7.152;2022-08-14T03:06:13;20.60;99.90
27409;DHT22;20413;50.782;7.152;2022-08-14T03:08:40;20.50;99.90
27409;DHT22;20413;50.782;7.152;2022-08-14T03:11:08;20.40;99.90
27409;DHT22;20413;50.782;7.152;2022-08-14T03:13:52;20.40;99.90
27409;DHT22;20413;50.782;7.152;2022-08-14T03:16:20;20.40;99.90
27409;DHT22;20413;50.782;7.152;2022-08-14T03:18:46;20.30;99.90
27409;DHT22;20413;50.782;7.152;2022-08-14T03:21:17;20.40;99.90
27409;DHT22;20413;50.782;7.152;2022-08-14T03:23:48;20.30;99.90
27409;DHT22;20413;50.782;7.152;2022-08-14T03:26:19;20.30;99.90
27409;DHT22;20413;50.782;7.152;2022-08-14T03:28:49;20.30;99.90
27409;DHT22;20413;50.782;7.152;2022-08-14T03:31:16;20.30;99.90
27409;DHT22;20413;50.782;7.152;2022-08-14T03:33:44;20.30;99.90
27409;DHT22;20413;50.782;7.152;2022-08-14T03:36:12;20.40;99.90
27409;DHT22;20413;50.782;7.152;2022-08-14T03:38:44;20.50;99.90
27409;DHT22;20413;50.782;7.152;2022-08-14T03:41:15;20.60;99.90
27409;DHT22;20413;50.782;7.152;2022-08-14T03:43:45;20.60;99.90
27409;DHT22;20413;50.782;7.152;2022-08-14T03:46:12;20.60;99.90
27409;DHT22;20413;50.782;7.152;2022-08-14T03:48:39;20.60;99.90
27409;DHT22;20413;50.782;7.152;2022-08-14T03:51:07;20.60;99.90
27409;DHT22;20413;50.782;7.152;2022-08-14T03:53:34;20.60;99.90
27409;DHT22;20413;50.782;7.152;2022-08-14T03:56:04;20.60;99.90
27409;DHT22;20413;50.782;7.152;2022-08-14T03:58:31;20.50;99.90
27409;DHT22;20413;50.782;7.152;2022-08-14T04:00:57;20.50;99.90
27409;DHT22;20413;50.782;7.152;2022-08-14T04:03:23;20.40;99.90
27409;DHT22;20413;50.782;7.152;2022-08-14T04:05:51;20.30;99.90
27409;DHT22;20413;50.782;7.152;2022-08-14T04:08:17;20.40;99.90
27409;DHT22;20413;50.782;7.152;2022-08-14T04:10:43;20.40;99.90
27409;DHT22;20413;50.782;7.152;2022-08-14T04:13:11;20.30;99.90
27409;DHT22;20413;50.782;7.152;2022-08-14T04:15:37;20.30;99.90
27409;DHT22;20413;50.782;7.152;2022-08-14T04:18:04;20.30;99.90
27409;DHT22;20413;50.782;7.152;2022-08-14T04:20:34;20.30;99.90
27409;DHT22;20413;50.782;7.152;2022-08-14T04:23:00;20.20;99.90
27409;DHT22;20413;50.782;7.152;2022-08-14T04:25:26;20.20;99.90
27409;DHT22;20413;50.782;7.152;2022-08-14T04:27:51;20.20;99.90
27409;DHT22;20413;50.782;7.152;2022-08-14T04:30:19;20.20;99.90
27409;DHT22;20413;50.782;7.152;2022-08-14T04:32:44;20.30;99.90
27409;DHT22;20413;50.782;7.152;2022-08-14T04:35:10;20.20;99.90
27409;DHT22;20413;50.782;7.152;2022-08-14T04:37:36;20.20;99.90
27409;DHT22;20413;50.782;7.152;2022-08-14T04:40:20;20.20;99.90
27409;DHT22;20413;50.782;7.152;2022-08-14T04:43:04;20.10;99.90
27409;DHT22;20413;50.782;7.152;2022-08-14T04:45:48;20.10;99.90
27409;DHT22;20413;50.782;7.152;2022-08-14T04:48:15;20.00;99.90
27409;DHT22;20413;50.782;7.152;2022-08-14T04:50:46;20.00;99.90
27409;DHT22;20413;50.782;7.152;2022-08-14T04:53:14;19.90;99.90
27409;DHT22;20413;50.782;7.152;2022-08-14T04:55:40;19.90;99.90
27409;DHT22;20413;50.782;7.152;2022-08-14T04:58:07;20.00;99.90
27409;DHT22;20413;50.782;7.152;2022-08-14T05:00:34;20.00;99.90
27409;DHT22;20413;50.782;7.152;2022-08-14T05:03:00;20.10;99.90
27409;DHT22;20413;50.782;7.152;2022-08-14T05:05:28;20.10;99.90
27409;DHT22;20413;50.782;7.152;2022-08-14T05:07:54;20.20;99.90
27409;DHT22;20413;50.782;7.152;2022-08-14T05:10:20;20.20;99.90
27409;DHT22;20413;50.782;7.152;2022-08-14T05:12:50;20.30;99.90
27409;DHT22;20413;50.782;7.152;2022-08-14T05:15:17;20.30;99.90
27409;DHT22;20413;50.782;7.152;2022-08-14T05:17:46;20.40;99.90
27409;DHT22;20413;50.782;7.152;2022-08-14T05:20:11;20.40;99.90
27409;DHT22;20413;50.782;7.152;2022-08-14T05:22:37;20.40;99.90
27409;DHT22;20413;50.782;7.152;2022-08-14T05:25:03;20.50;99.90
27409;DHT22;20413;50.782;7.152;2022-08-14T05:27:29;20.60;99.90
27409;DHT22;20413;50.782;7.152;2022-08-14T05:29:55;20.60;99.90
27409;DHT22;20413;50.782;7.152;2022-08-14T05:32:22;20.70;99.90
27409;DHT22;20413;50.782;7.152;2022-08-14T05:34:48;20.80;99.90
27409;DHT22;20413;50.782;7.152;2022-08-14T05:37:14;20.90;99.90
27409;DHT22;20413;50.782;7.152;2022-08-14T05:39:39;21.00;99.90
27409;DHT22;20413;50.782;7.152;2022-08-14T05:42:08;21.10;99.90
27409;DHT22;20413;50.782;7.152;2022-08-14T05:44:33;21.20;99.90
27409;DHT22;20413;50.782;7.152;2022-08-14T05:46:59;21.30;99.90
27409;DHT22;20413;50.782;7.152;2022-08-14T05:49:26;21.40;99.90
27409;DHT22;20413;50.782;7.152;2022-08-14T05:51:52;21.50;99.90
27409;DHT22;20413;50.782;7.152;2022-08-14T05:54:18;21.70;99.90
27409;DHT22;20413;50.782;7.152;2022-08-14T05:56:43;21.70;99.90
27409;DHT22;20413;50.782;7.152;2022-08-14T05:59:10;21.90;99.90
27409;DHT22;20413;50.782;7.152;2022-08-14T06:01:37;22.10;99.90
27409;DHT22;20413;50.782;7.152;2022-08-14T06:04:02;22.30;99.90
27409;DHT22;20413;50.782;7.152;2022-08-14T06:06:28;22.30;99.90
27409;DHT22;20413;50.782;7.152;2022-08-14T06:08:54;22.50;99.90
27409;DHT22;20413;50.782;7.152;2022-08-14T06:11:19;22.60;99.90
27409;DHT22;20413;50.782;7.152;2022-08-14T06:13:45;22.70;99.90
27409;DHT22;20413;50.782;7.152;2022-08-14T06:16:13;22.80;99.90
27409;DHT22;20413;50.782;7.152;2022-08-14T06:18:39;22.90;99.90
27409;DHT22;20413;50.782;7.152;2022-08-14T06:21:05;23.00;99.90
27409;DHT22;20413;50.782;7.152;2022-08-14T06:23:30;23.10;99.90
27409;DHT22;20413;50.782;7.152;2022-08-14T06:25:56;23.20;99.90
27409;DHT22;20413;50.782;7.152;2022-08-14T06:28:24;23.30;99.90
27409;DHT22;20413;50.782;7.152;2022-08-14T06:30:53;23.40;99.90
27409;DHT22;20413;50.782;7.152;2022-08-14T06:33:19;23.50;99.90
27409;DHT22;20413;50.782;7.152;2022-08-14T06:35:46;23.60;99.90
27409;DHT22;20413;50.782;7.152;2022-08-14T06:38:20;23.70;99.90
27409;DHT22;20413;50.782;7.152;2022-08-14T06:40:46;23.80;99.90
27409;DHT22;20413;50.782;7.152;2022-08-14T06:43:13;23.90;99.90
27409;DHT22;20413;50.782;7.152;2022-08-14T06:45:41;24.10;99.90
27409;DHT22;20413;50.782;7.152;2022-08-14T06:48:21;24.20;99.90
27409;DHT22;20413;50.782;7.152;2022-08-14T06:50:48;24.40;99.90
27409;DHT22;20413;50.782;7.152;2022-08-14T06:53:15;24.70;99.90
27409;DHT22;20413;50.782;7.152;2022-08-14T06:55:45;25.00;99.90
27409;DHT22;20413;50.782;7.152;2022-08-14T06:58:16;25.60;99.90
27409;DHT22;20413;50.782;7.152;2022-08-14T07:00:42;26.20;99.90
27409;DHT22;20413;50.782;7.152;2022-08-14T07:03:28;27.10;99.90
27409;DHT22;20413;50.782;7.152;2022-08-14T07:06:12;27.90;99.90
27409;DHT22;20413;50.782;7.152;2022-08-14T07:18:25;31.20;92.30
27409;DHT22;20413;50.782;7.152;2022-08-14T07:20:52;31.30;92.70
27409;DHT22;20413;50.782;7.152;2022-08-14T07:23:18;31.50;91.70
27409;DHT22;20413;50.782;7.152;2022-08-14T07:25:44;31.40;91.60
27409;DHT22;20413;50.782;7.152;2022-08-14T07:28:15;32.00;91.00
27409;DHT22;20413;50.782;7.152;2022-08-14T07:30:41;32.30;91.00
27409;DHT22;20413;50.782;7.152;2022-08-14T07:33:08;32.40;90.50
27409;DHT22;20413;50.782;7.152;2022-08-14T07:35:35;32.10;90.40
27409;DHT22;20413;50.782;7.152;2022-08-14T07:38:03;32.70;89.40
27409;DHT22;20413;50.782;7.152;2022-08-14T07:40:28;32.90;89.40
27409;DHT22;20413;50.782;7.152;2022-08-14T07:42:54;33.10;87.50
27409;DHT22;20413;50.782;7.152;2022-08-14T07:45:20;33.50;86.80
27409;DHT22;20413;50.782;7.152;2022-08-14T07:47:46;33.70;86.70
27409;DHT22;20413;50.782;7.152;2022-08-14T07:50:15;33.70;86.40
27409;DHT22;20413;50.782;7.152;2022-08-14T07:52:45;33.80;87.00
27409;DHT22;20413;50.782;7.152;2022-08-14T07:55:13;34.00;85.70
27409;DHT22;20413;50.782;7.152;2022-08-14T07:57:40;34.40;83.40
27409;DHT22;20413;50.782;7.152;2022-08-14T08:00:09;34.90;84.00
27409;DHT22;20413;50.782;7.152;2022-08-14T08:02:40;34.90;82.00
27409;DHT22;20413;50.782;7.152;2022-08-14T08:05:07;34.20;84.10
27409;DHT22;20413;50.782;7.152;2022-08-14T08:07:33;34.30;82.50
27409;DHT22;20413;50.782;7.152;2022-08-14T08:10:04;33.80;84.00
27409;DHT22;20413;50.782;7.152;2022-08-14T08:12:51;33.70;83.90
27409;DHT22;20413;50.782;7.152;2022-08-14T08:15:18;33.60;92.50
27409;DHT22;20413;50.782;7.152;2022-08-14T08:17:44;33.50;88.90
27409;DHT22;20413;50.782;7.152;2022-08-14T08:20:24;33.40;89.10
27409;DHT22;20413;50.782;7.152;2022-08-14T08:22:52;33.50;88.40
27409;DHT22;20413;50.782;7.152;2022-08-14T08:25:20;33.90;86.60
27409;DHT22;20413;50.782;7.152;2022-08-14T08:30:26;34.10;95.30
27409;DHT22;20413;50.782;7.152;2022-08-14T08:32:53;34.40;88.90
27409;DHT22;20413;50.782;7.152;2022-08-14T08:35:21;34.20;89.20
27409;DHT22;20413;50.782;7.152;2022-08-14T08:37:49;34.00;84.70
27409;DHT22;20413;50.782;7.152;2022-08-14T08:40:29;34.30;83.30
27409;DHT22;20413;50.782;7.152;2022-08-14T08:42:56;34.50;80.40
27409;DHT22;20413;50.782;7.152;2022-08-14T08:45:22;35.20;95.00
27409;DHT22;20413;50.782;7.152;2022-08-14T08:47:49;35.50;79.00
27409;DHT22;20413;50.782;7.152;2022-08-14T08:50:26;35.50;78.00
27409;DHT22;20413;50.782;7.152;2022-08-14T08:52:59;34.80;78.70
27409;DHT22;20413;50.782;7.152;2022-08-14T08:58:03;35.50;80.80
27409;DHT22;20413;50.782;7.152;2022-08-14T09:00:30;36.40;77.30
27409;DHT22;20413;50.782;7.152;2022-08-14T09:03:02;36.90;74.20
27409;DHT22;20413;50.782;7.152;2022-08-14T09:05:29;36.40;74.90
27409;DHT22;20413;50.782;7.152;2022-08-14T09:08:12;36.00;74.70
27409;DHT22;20413;50.782;7.152;2022-08-14T09:10:37;36.30;74.30
27409;DHT22;20413;50.782;7.152;2022-08-14T09:13:04;37.10;72.10
27409;DHT22;20413;50.782;7.152;2022-08-14T09:15:29;37.40;71.90
27409;DHT22;20413;50.782;7.152;2022-08-14T09:17:56;38.10;70.90
27409;DHT22;20413;50.782;7.152;2022-08-14T09:20:22;38.40;70.60
27409;DHT22;20413;50.782;7.152;2022-08-14T09:22:48;38.10;69.90
27409;DHT22;20413;50.782;7.152;2022-08-14T09:25:16;37.60;70.40
27409;DHT22;20413;50.782;7.152;2022-08-14T09:27:42;37.70;70.70
27409;DHT22;20413;50.782;7.152;2022-08-14T09:30:09;38.10;69.30
27409;DHT22;20413;50.782;7.152;2022-08-14T09:32:52;37.80;69.90
27409;DHT22;20413;50.782;7.152;2022-08-14T09:35:27;38.50;67.80
27409;DHT22;20413;50.782;7.152;2022-08-14T09:38:18;38.10;67.20
27409;DHT22;20413;50.782;7.152;2022-08-14T09:43:59;38.70;66.20
27409;DHT22;20413;50.782;7.152;2022-08-14T09:46:27;37.80;66.80
27409;DHT22;20413;50.782;7.152;2022-08-14T09:49:06;37.40;64.50
27409;DHT22;20413;50.782;7.152;2022-08-14T09:51:34;37.50;65.60
27409;DHT22;20413;50.782;7.152;2022-08-14T09:54:05;38.30;67.20
27409;DHT22;20413;50.782;7.152;2022-08-14T09:56:48;39.10;63.80
27409;DHT22;20413;50.782;7.152;2022-08-14T09:59:15;40.10;62.10
27409;DHT22;20413;50.782;7.152;2022-08-14T10:01:43;39.40;63.00
27409;DHT22;20413;50.782;7.152;2022-08-14T10:04:26;38.90;62.80
27409;DHT22;20413;50.782;7.152;2022-08-14T10:06:53;39.40;61.90
27409;DHT22;20413;50.782;7.152;2022-08-14T10:09:19;38.70;63.10
27409;DHT22;20413;50.782;7.152;2022-08-14T10:11:57;38.70;62.90
27409;DHT22;20413;50.782;7.152;2022-08-14T10:14:27;38.70;61.30
27409;DHT22;20413;50.782;7.152;2022-08-14T10:16:56;38.60;61.70
27409;DHT22;20413;50.782;7.152;2022-08-14T10:29:33;38.80;62.70
27409;DHT22;20413;50.782;7.152;2022-08-14T10:31:59;38.90;63.70
27409;DHT22;20413;50.782;7.152;2022-08-14T10:34:34;39.10;60.50
27409;DHT22;20413;50.782;7.152;2022-08-14T10:37:05;38.80;61.20
27409;DHT22;20413;50.782;7.152;2022-08-14T10:39:33;38.70;60.60
27409;DHT22;20413;50.782;7.152;2022-08-14T10:44:42;39.90;59.60
27409;DHT22;20413;50.782;7.152;2022-08-14T10:47:12;39.70;59.20
27409;DHT22;20413;50.782;7.152;2022-08-14T10:49:43;39.40;60.90
27409;DHT22;20413;50.782;7.152;2022-08-14T10:52:22;39.00;61.20
27409;DHT22;20413;50.782;7.152;2022-08-14T10:54:48;39.10;63.00
27409;DHT22;20413;50.782;7.152;2022-08-14T10:57:25;40.30;60.00
27409;DHT22;20413;50.782;7.152;2022-08-14T10:59:56;40.00;59.50
27409;DHT22;20413;50.782;7.152;2022-08-14T11:02:35;39.40;58.80
27409;DHT22;20413;50.782;7.152;2022-08-14T11:05:11;39.60;58.20
27409;DHT22;20413;50.782;7.152;2022-08-14T11:07:40;38.90;59.20
27409;DHT22;20413;50.782;7.152;2022-08-14T11:10:09;38.70;58.90
27409;DHT22;20413;50.782;7.152;2022-08-14T11:12:44;38.80;59.00
27409;DHT22;20413;50.782;7.152;2022-08-14T11:15:13;38.80;59.10
27409;DHT22;20413;50.782;7.152;2022-08-14T11:17:39;40.30;74.80
27409;DHT22;20413;50.782;7.152;2022-08-14T11:20:07;40.90;57.20
27409;DHT22;20413;50.782;7.152;2022-08-14T11:22:33;40.50;56.10
27409;DHT22;20413;50.782;7.152;2022-08-14T11:30:00;39.90;94.40
27409;DHT22;20413;50.782;7.152;2022-08-14T11:32:28;39.10;58.10
27409;DHT22;20413;50.782;7.152;2022-08-14T11:39:48;41.20;95.60
27409;DHT22;20413;50.782;7.152;2022-08-14T11:42:23;41.80;57.10
27409;DHT22;20413;50.782;7.152;2022-08-14T11:44:52;42.50;55.70
27409;DHT22;20413;50.782;7.152;2022-08-14T11:47:17;43.40;55.00
27409;DHT22;20413;50.782;7.152;2022-08-14T11:49:46;43.20;55.80
27409;DHT22;20413;50.782;7.152;2022-08-14T11:52:16;43.90;55.70
27409;DHT22;20413;50.782;7.152;2022-08-14T11:54:44;44.80;54.20
27409;DHT22;20413;50.782;7.152;2022-08-14T11:57:20;44.70;52.60
27409;DHT22;20413;50.782;7.152;2022-08-14T12:02:14;40.90;54.70
27409;DHT22;20413;50.782;7.152;2022-08-14T12:04:51;40.20;56.40
27409;DHT22;20413;50.782;7.152;2022-08-14T12:09:44;41.10;60.40
27409;DHT22;20413;50.782;7.152;2022-08-14T12:12:16;41.00;54.70
27409;DHT22;20413;50.782;7.152;2022-08-14T12:14:54;39.70;56.70
27409;DHT22;20413;50.782;7.152;2022-08-14T12:17:29;40.00;56.30
27409;DHT22;20413;50.782;7.152;2022-08-14T12:22:50;39.80;56.10
27409;DHT22;20413;50.782;7.152;2022-08-14T12:25:21;40.50;56.40
27409;DHT22;20413;50.782;7.152;2022-08-14T12:27:49;41.10;56.60
27409;DHT22;20413;50.782;7.152;2022-08-14T12:33:01;43.20;54.70
27409;DHT22;20413;50.782;7.152;2022-08-14T12:38:02;42.70;53.80
27409;DHT22;20413;50.782;7.152;2022-08-14T12:40:29;44.00;52.90
27409;DHT22;20413;50.782;7.152;2022-08-14T12:43:02;43.40;53.00
27409;DHT22;20413;50.782;7.152;2022-08-14T12:45:32;42.50;53.10
27409;DHT22;20413;50.782;7.152;2022-08-14T12:48:02;41.60;54.20
27409;DHT22;20413;50.782;7.152;2022-08-14T12:50:39;41.30;53.90
27409;DHT22;20413;50.782;7.152;2022-08-14T12:53:05;41.40;54.20
27409;DHT22;20413;50.782;7.152;2022-08-14T12:55:32;42.30;53.60
27409;DHT22;20413;50.782;7.152;2022-08-14T12:58:01;41.70;53.70
27409;DHT22;20413;50.782;7.152;2022-08-14T13:00:31;39.80;55.00
27409;DHT22;20413;50.782;7.152;2022-08-14T13:02:58;39.10;56.20
27409;DHT22;20413;50.782;7.152;2022-08-14T13:05:28;37.90;56.90
27409;DHT22;20413;50.782;7.152;2022-08-14T13:07:58;37.70;57.90
27409;DHT22;20413;50.782;7.152;2022-08-14T13:10:24;39.30;59.40
27409;DHT22;20413;50.782;7.152;2022-08-14T13:12:55;41.30;54.80
27409;DHT22;20413;50.782;7.152;2022-08-14T13:15:21;41.40;53.80
27409;DHT22;20413;50.782;7.152;2022-08-14T13:17:52;40.10;54.20
27409;DHT22;20413;50.782;7.152;2022-08-14T13:20:20;39.70;55.90
27409;DHT22;20413;50.782;7.152;2022-08-14T13:22:47;39.20;56.70
27409;DHT22;20413;50.782;7.152;2022-08-14T13:25:22;39.10;56.40
27409;DHT22;20413;50.782;7.152;2022-08-14T13:27:51;37.50;57.90
27409;DHT22;20413;50.782;7.152;2022-08-14T13:30:21;35.70;59.50
27409;DHT22;20413;50.782;7.152;2022-08-14T13:32:49;35.60;60.10
27409;DHT22;20413;50.782;7.152;2022-08-14T13:35:16;36.30;59.40
27409;DHT22;20413;50.782;7.152;2022-08-14T13:37:43;36.90;58.20
27409;DHT22;20413;50.782;7.152;2022-08-14T13:40:10;36.30;58.70
27409;DHT22;20413;50.782;7.152;2022-08-14T13:42:40;36.00;58.80
27409;DHT22;20413;50.782;7.152;2022-08-14T13:45:06;35.60;60.90
27409;DHT22;20413;50.782;7.152;2022-08-14T13:47:31;35.80;59.90
27409;DHT22;20413;50.782;7.152;2022-08-14T13:52:33;38.30;57.10
27409;DHT22;20413;50.782;7.152;2022-08-14T13:55:04;38.80;56.80
27409;DHT22;20413;50.782;7.152;2022-08-14T13:57:33;40.00;56.20
27409;DHT22;20413;50.782;7.152;2022-08-14T14:00:05;41.30;54.70
27409;DHT22;20413;50.782;7.152;2022-08-14T14:02:40;41.30;54.20
27409;DHT22;20413;50.782;7.152;2022-08-14T14:05:07;41.70;53.70
27409;DHT22;20413;50.782;7.152;2022-08-14T14:07:34;41.10;53.60
27409;DHT22;20413;50.782;7.152;2022-08-14T14:10:06;40.10;54.60
27409;DHT22;20413;50.782;7.152;2022-08-14T14:12:36;39.90;56.00
27409;DHT22;20413;50.782;7.152;2022-08-14T14:15:06;40.50;54.30
27409;DHT22;20413;50.782;7.152;2022-08-14T14:17:34;41.20;54.60
27409;DHT22;20413;50.782;7.152;2022-08-14T14:20:00;41.10;62.40
27409;DHT22;20413;50.782;7.152;2022-08-14T14:22:26;41.20;60.90
27409;DHT22;20413;50.782;7.152;2022-08-14T14:24:53;41.50;58.60
27409;DHT22;20413;50.782;7.152;2022-08-14T14:27:19;40.20;55.00
27409;DHT22;20413;50.782;7.152;2022-08-14T14:29:47;39.80;54.60
27409;DHT22;20413;50.782;7.152;2022-08-14T14:32:15;40.10;65.30
27409;DHT22;20413;50.782;7.152;2022-08-14T14:34:41;39.50;62.60
27409;DHT22;20413;50.782;7.152;2022-08-14T14:37:10;39.60;61.80
27409;DHT22;20413;50.782;7.152;2022-08-14T14:39:37;40.10;61.60
27409;DHT22;20413;50.782;7.152;2022-08-14T14:42:04;40.70;59.80
27409;DHT22;20413;50.782;7.152;2022-08-14T14:44:38;40.80;59.30
27409;DHT22;20413;50.782;7.152;2022-08-14T14:47:11;40.60;53.80
27409;DHT22;20413;50.782;7.152;2022-08-14T14:49:37;39.40;54.60
27409;DHT22;20413;50.782;7.152;2022-08-14T14:52:04;39.00;75.90
27409;DHT22;20413;50.782;7.152;2022-08-14T14:54:31;38.70;78.50
27409;DHT22;20413;50.782;7.152;2022-08-14T14:57:01;39.00;79.20
27409;DHT22;20413;50.782;7.152;2022-08-14T14:59:29;38.40;80.40
27409;DHT22;20413;50.782;7.152;2022-08-14T15:02:04;39.40;81.40
27409;DHT22;20413;50.782;7.152;2022-08-14T15:04:31;39.70;85.40
27409;DHT22;20413;50.782;7.152;2022-08-14T15:06:57;39.90;84.90
27409;DHT22;20413;50.782;7.152;2022-08-14T15:09:22;39.10;85.00
27409;DHT22;20413;50.782;7.152;2022-08-14T15:24:01;36.00;58.50
27409;DHT22;20413;50.782;7.152;2022-08-14T15:26:27;36.00;59.00
27409;DHT22;20413;50.782;7.152;2022-08-14T15:28:52;35.70;59.40
27409;DHT22;20413;50.782;7.152;2022-08-14T15:31:18;35.20;60.10
27409;DHT22;20413;50.782;7.152;2022-08-14T15:33:44;35.10;62.20
27409;DHT22;20413;50.782;7.152;2022-08-14T15:36:28;35.20;61.40
27409;DHT22;20413;50.782;7.152;2022-08-14T15:38:55;35.00;60.80
27409;DHT22;20413;50.782;7.152;2022-08-14T15:41:21;34.80;60.80
27409;DHT22;20413;50.782;7.152;2022-08-14T15:43:46;34.70;61.70
27409;DHT22;20413;50.782;7.152;2022-08-14T15:46:12;34.60;61.80
27409;DHT22;20413;50.782;7.152;2022-08-14T15:48:39;34.10;62.10
27409;DHT22;20413;50.782;7.152;2022-08-14T15:51:05;33.80;63.10
27409;DHT22;20413;50.782;7.152;2022-08-14T15:53:30;33.80;63.80
27409;DHT22;20413;50.782;7.152;2022-08-14T15:55:56;34.00;62.90
27409;DHT22;20413;50.782;7.152;2022-08-14T15:58:23;34.20;63.10
27409;DHT22;20413;50.782;7.152;2022-08-14T16:00:50;34.50;63.60
27409;DHT22;20413;50.782;7.152;2022-08-14T16:03:35;34.70;62.20
27409;DHT22;20413;50.782;7.152;2022-08-14T16:06:10;34.80;62.00
27409;DHT22;20413;50.782;7.152;2022-08-14T16:08:36;35.00;61.80
27409;DHT22;20413;50.782;7.152;2022-08-14T16:11:05;35.20;61.30
27409;DHT22;20413;50.782;7.152;2022-08-14T16:13:31;35.30;60.90
27409;DHT22;20413;50.782;7.152;2022-08-14T16:16:03;35.40;60.10
27409;DHT22;20413;50.782;7.152;2022-08-14T16:18:30;35.30;60.80
27409;DHT22;20413;50.782;7.152;2022-08-14T16:20:57;35.10;61.20
27409;DHT22;20413;50.782;7.152;2022-08-14T16:23:25;34.80;61.50
27409;DHT22;20413;50.782;7.152;2022-08-14T16:25:52;34.70;62.70
27409;DHT22;20413;50.782;7.152;2022-08-14T16:28:20;34.50;61.90
27409;DHT22;20413;50.782;7.152;2022-08-14T16:30:48;34.20;62.60
27409;DHT22;20413;50.782;7.152;2022-08-14T16:33:16;34.00;62.70
27409;DHT22;20413;50.782;7.152;2022-08-14T16:35:44;33.90;63.50
27409;DHT22;20413;50.782;7.152;2022-08-14T16:38:14;33.90;63.30
27409;DHT22;20413;50.782;7.152;2022-08-14T16:40:42;33.90;63.00
27409;DHT22;20413;50.782;7.152;2022-08-14T16:43:09;34.10;62.40
27409;DHT22;20413;50.782;7.152;2022-08-14T16:45:36;34.00;62.50
27409;DHT22;20413;50.782;7.152;2022-08-14T16:48:05;33.90;62.80
27409;DHT22;20413;50.782;7.152;2022-08-14T16:50:34;33.70;63.30